createdAt,value
2018-09-24T00:00:17.690Z,8.90
2018-09-24T00:02:45.528Z,9.00
2018-09-24T00:05:13.545Z,9.00
2018-09-24T00:07:41.717Z,9.00
2018-09-24T00:10:09.672Z,9.00
2018-09-24T00:12:37.652Z,9.00
2018-09-24T00:15:05.629Z,9.00
2018-09-24T00:17:33.616Z,8.90
2018-09-24T00:20:01.629Z,9.00
2018-09-24T00:22:30.347Z,8.90
2018-09-24T00:24:58.342Z,8.90
2018-09-24T00:27:26.313Z,8.90
2018-09-24T00:29:54.364Z,8.80
2018-09-24T00:32:22.319Z,8.90
2018-09-24T00:34:50.337Z,8.80
2018-09-24T00:37:18.284Z,8.80
2018-09-24T00:39:46.325Z,8.80
2018-09-24T00:42:14.332Z,8.80
2018-09-24T00:44:42.314Z,8.90
2018-09-24T00:47:10.267Z,8.80
2018-09-24T00:49:38.244Z,8.80
2018-09-24T00:52:06.208Z,8.80
2018-09-24T00:54:34.172Z,8.90
2018-09-24T00:57:02.120Z,8.90
2018-09-24T00:59:30.851Z,8.90
2018-09-24T01:01:58.801Z,8.80
2018-09-24T01:04:26.772Z,8.80
2018-09-24T01:06:54.744Z,8.80
2018-09-24T01:09:22.711Z,8.80
2018-09-24T01:11:50.676Z,8.80
2018-09-24T01:14:18.695Z,8.80
2018-09-24T01:16:47.072Z,8.80
2018-09-24T01:19:15.061Z,8.80
2018-09-24T01:21:43.427Z,8.70
2018-09-24T01:24:11.386Z,8.80
2018-09-24T01:26:39.334Z,8.70
2018-09-24T01:29:07.310Z,8.70
2018-09-24T01:31:35.276Z,8.80
2018-09-24T01:34:03.260Z,8.80
2018-09-24T01:36:31.245Z,8.80
2018-09-24T01:38:59.284Z,8.70
2018-09-24T01:41:27.272Z,8.80
2018-09-24T01:43:55.270Z,8.70
2018-09-24T01:46:23.259Z,8.70
2018-09-24T01:48:51.228Z,8.60
2018-09-24T01:51:19.237Z,8.60
2018-09-24T01:53:47.800Z,8.60
2018-09-24T01:56:15.769Z,8.60
2018-09-24T01:58:43.742Z,8.60
2018-09-24T02:01:11.736Z,8.60
2018-09-24T02:03:39.676Z,8.60
2018-09-24T02:06:07.705Z,8.60
2018-09-24T02:08:40.916Z,8.60
2018-09-24T02:11:08.905Z,8.60
2018-09-24T02:13:37.427Z,8.50
2018-09-24T02:16:05.476Z,8.50
2018-09-24T02:18:33.556Z,8.50
2018-09-24T02:21:01.584Z,8.50
2018-09-24T02:23:29.552Z,8.50
2018-09-24T02:25:57.542Z,8.50
2018-09-24T02:28:28.746Z,8.50
2018-09-24T02:30:56.737Z,8.50
2018-09-24T02:33:24.856Z,8.50
2018-09-24T02:35:52.821Z,8.40
2018-09-24T02:38:20.780Z,8.40
2018-09-24T02:40:48.755Z,8.40
2018-09-24T02:43:23.080Z,8.40
2018-09-24T02:45:51.545Z,8.40
2018-09-24T02:48:19.624Z,8.50
2018-09-24T02:50:47.692Z,8.40
2018-09-24T02:53:15.693Z,8.40
2018-09-24T02:55:43.711Z,8.40
2018-09-24T02:58:16.223Z,8.40
2018-09-24T03:00:44.472Z,8.40
2018-09-24T03:03:12.553Z,8.40
2018-09-24T03:05:40.768Z,8.40
2018-09-24T03:08:10.651Z,8.40
2018-09-24T03:10:39.136Z,8.40
2018-09-24T03:13:07.106Z,8.40
2018-09-24T03:15:36.533Z,8.40
2018-09-24T03:18:04.873Z,8.40
2018-09-24T03:20:34.549Z,8.50
2018-09-24T03:23:02.889Z,8.50
2018-09-24T03:25:30.896Z,8.50
2018-09-24T03:27:59.808Z,8.40
2018-09-24T03:33:11.041Z,8.30
2018-09-24T03:35:39.079Z,8.30
2018-09-24T03:38:07.040Z,8.30
2018-09-24T03:40:35.010Z,8.20
2018-09-24T03:43:02.967Z,8.20
2018-09-24T03:45:31.169Z,8.30
2018-09-24T03:47:59.332Z,8.30
2018-09-24T03:50:27.486Z,8.30
2018-09-24T03:52:55.425Z,8.30
2018-09-24T03:55:23.440Z,8.30
2018-09-24T03:57:51.409Z,8.30
2018-09-24T04:00:19.585Z,8.30
2018-09-24T04:02:47.546Z,8.30
2018-09-24T04:05:20.959Z,8.30
2018-09-24T04:07:54.393Z,8.30
2018-09-24T04:10:27.773Z,8.20
2018-09-24T04:13:01.190Z,8.20
2018-09-24T04:15:34.637Z,8.20
2018-09-24T04:18:08.368Z,8.20
2018-09-24T04:20:41.786Z,8.20
2018-09-24T04:23:15.333Z,8.20
2018-09-24T04:25:48.768Z,8.20
2018-09-24T04:28:22.212Z,8.20
2018-09-24T04:30:55.835Z,8.20
2018-09-24T04:33:29.249Z,8.10
2018-09-24T04:36:02.666Z,8.10
2018-09-24T04:38:36.272Z,8.10
2018-09-24T04:41:10.026Z,8.10
2018-09-24T04:43:43.536Z,8.10
2018-09-24T04:46:17.094Z,8.00
2018-09-24T04:48:50.620Z,7.90
2018-09-24T04:51:24.085Z,7.90
2018-09-24T04:53:57.726Z,7.90
2018-09-24T04:56:31.279Z,7.90
2018-09-24T04:59:04.680Z,7.90
2018-09-24T05:01:38.729Z,7.90
2018-09-24T05:04:12.149Z,7.80
2018-09-24T05:06:45.589Z,7.80
2018-09-24T05:09:19.187Z,7.80
2018-09-24T05:11:52.625Z,7.80
2018-09-24T05:14:26.120Z,7.80
2018-09-24T05:16:59.561Z,7.80
2018-09-24T05:19:33.160Z,7.80
2018-09-24T05:22:06.699Z,7.80
2018-09-24T05:24:40.117Z,7.80
2018-09-24T05:27:13.534Z,7.80
2018-09-24T05:29:47.002Z,7.90
2018-09-24T05:32:20.627Z,7.90
2018-09-24T05:34:53.956Z,8.00
2018-09-24T05:37:27.428Z,7.90
2018-09-24T05:40:00.898Z,8.00
2018-09-24T05:42:34.260Z,8.00
2018-09-24T05:45:07.817Z,8.00
2018-09-24T05:47:41.263Z,7.90
2018-09-24T05:50:14.703Z,7.90
2018-09-24T05:52:48.092Z,7.80
2018-09-24T05:55:21.516Z,7.80
2018-09-24T05:57:55.154Z,7.80
2018-09-24T06:00:28.649Z,7.80
2018-09-24T06:03:02.285Z,7.80
2018-09-24T06:05:35.637Z,7.80
2018-09-24T06:08:09.488Z,7.80
2018-09-24T06:10:42.920Z,7.80
2018-09-24T06:13:16.417Z,7.90
2018-09-24T06:15:49.916Z,7.90
2018-09-24T06:18:23.417Z,7.90
2018-09-24T06:20:56.872Z,7.90
2018-09-24T06:23:30.389Z,7.90
2018-09-24T06:26:03.936Z,8.00
2018-09-24T06:28:37.356Z,8.00
2018-09-24T06:31:10.956Z,8.20
2018-09-24T06:33:44.457Z,8.20
2018-09-24T06:36:20.972Z,8.20
2018-09-24T06:38:54.472Z,8.20
2018-09-24T06:41:27.992Z,8.20
2018-09-24T06:44:01.523Z,8.20
2018-09-24T06:46:34.945Z,8.20
2018-09-24T06:49:08.444Z,8.20
2018-09-24T06:51:41.869Z,8.20
2018-09-24T06:54:15.184Z,8.20
2018-09-24T06:56:48.605Z,8.20
2018-09-24T06:59:22.055Z,8.20
2018-09-24T07:01:55.416Z,8.30
2018-09-24T07:04:28.925Z,8.30
2018-09-24T07:07:02.448Z,8.40
2018-09-24T07:09:35.919Z,9.80
2018-09-24T07:12:10.336Z,9.80
2018-09-24T07:14:43.765Z,9.70
2018-09-24T07:17:17.281Z,9.10
2018-09-24T07:19:50.844Z,9.00
2018-09-24T07:22:24.337Z,8.90
2018-09-24T07:24:57.851Z,8.80
2018-09-24T07:27:31.280Z,8.90
2018-09-24T07:30:04.786Z,8.90
2018-09-24T07:32:38.143Z,9.00
2018-09-24T07:35:11.533Z,9.10
2018-09-24T07:37:44.941Z,9.10
2018-09-24T07:40:18.354Z,9.10
2018-09-24T07:42:51.936Z,9.20
2018-09-24T07:45:25.525Z,9.20
2018-09-24T07:47:59.065Z,9.30
2018-09-24T07:50:32.667Z,9.50
2018-09-24T07:53:06.066Z,9.60
2018-09-24T07:55:39.649Z,9.60
2018-09-24T07:58:13.024Z,9.70
2018-09-24T08:00:46.510Z,9.70
2018-09-24T08:03:19.894Z,9.80
2018-09-24T08:05:53.306Z,9.80
2018-09-24T08:08:26.576Z,9.90
2018-09-24T08:10:59.987Z,10.00
2018-09-24T08:13:33.413Z,9.90
2018-09-24T08:16:06.942Z,10.00
2018-09-24T08:18:41.377Z,10.00
2018-09-24T08:21:14.952Z,10.10
2018-09-24T08:23:48.393Z,10.20
2018-09-24T08:26:21.969Z,10.30
2018-09-24T08:28:55.629Z,10.40
2018-09-24T08:31:29.097Z,10.50
2018-09-24T08:34:02.540Z,10.60
2018-09-24T08:36:36.168Z,10.60
2018-09-24T08:39:11.767Z,10.60
2018-09-24T08:41:45.380Z,10.70
2018-09-24T08:44:18.789Z,10.80
2018-09-24T08:46:52.257Z,10.90
2018-09-24T08:49:25.640Z,11.00
2018-09-24T08:51:59.177Z,10.90
2018-09-24T08:54:32.579Z,11.00
2018-09-24T08:57:06.273Z,11.00
2018-09-24T08:59:39.605Z,11.10
2018-09-24T09:02:13.186Z,11.20
2018-09-24T09:04:46.611Z,11.30
2018-09-24T09:07:20.054Z,11.40
2018-09-24T09:09:53.407Z,11.40
2018-09-24T09:12:26.864Z,11.50
2018-09-24T09:15:00.355Z,11.60
2018-09-24T09:17:33.802Z,11.60
2018-09-24T09:20:07.354Z,11.70
2018-09-24T09:22:40.837Z,11.80
2018-09-24T09:25:14.351Z,12.00
2018-09-24T09:27:47.854Z,12.00
2018-09-24T09:30:21.221Z,12.10
2018-09-24T09:32:54.513Z,12.10
2018-09-24T09:35:28.052Z,12.00
2018-09-24T09:38:01.465Z,11.90
2018-09-24T09:40:34.894Z,11.80
2018-09-24T09:43:08.428Z,11.80
2018-09-24T09:45:42.368Z,12.00
2018-09-24T09:48:16.034Z,12.20
2018-09-24T09:50:49.465Z,12.10
2018-09-24T09:53:23.064Z,12.10
2018-09-24T09:55:56.524Z,11.90
2018-09-24T09:58:30.132Z,12.10
2018-09-24T10:01:03.617Z,12.20
2018-09-24T10:03:37.190Z,12.20
2018-09-24T10:06:10.727Z,12.10
2018-09-24T10:08:44.251Z,11.80
2018-09-24T10:11:17.710Z,11.30
2018-09-24T10:13:51.218Z,11.00
2018-09-24T10:16:24.656Z,11.00
2018-09-24T10:18:58.007Z,11.10
2018-09-24T10:21:31.539Z,11.30
2018-09-24T10:24:05.117Z,11.60
2018-09-24T10:26:38.690Z,11.70
2018-09-24T10:29:12.979Z,11.90
2018-09-24T10:31:46.553Z,12.00
2018-09-24T10:34:20.186Z,12.10
2018-09-24T10:36:53.604Z,12.30
2018-09-24T10:39:26.926Z,12.50
2018-09-24T10:42:00.359Z,12.70
2018-09-24T10:44:33.916Z,12.50
2018-09-24T10:47:07.416Z,12.30
2018-09-24T10:49:40.908Z,11.60
2018-09-24T10:52:14.299Z,11.50
2018-09-24T10:54:47.784Z,11.50
2018-09-24T10:57:21.124Z,11.70
2018-09-24T10:59:54.742Z,11.90
2018-09-24T11:02:28.060Z,12.10
2018-09-24T11:05:01.572Z,12.40
2018-09-24T11:07:35.147Z,12.50
2018-09-24T11:10:08.635Z,12.60
2018-09-24T11:12:41.990Z,12.80
2018-09-24T11:15:15.420Z,13.00
2018-09-24T11:17:48.956Z,13.10
2018-09-24T11:20:22.232Z,13.30
2018-09-24T11:22:55.799Z,13.90
2018-09-24T11:25:29.264Z,14.00
2018-09-24T11:28:02.664Z,14.00
2018-09-24T11:30:36.268Z,14.20
2018-09-24T11:33:09.661Z,15.30
2018-09-24T11:35:43.889Z,16.30
2018-09-24T11:38:17.420Z,15.60
2018-09-24T11:40:50.962Z,17.30
2018-09-24T11:43:24.598Z,18.60
2018-09-24T11:45:58.214Z,19.60
2018-09-24T11:48:31.660Z,19.90
2018-09-24T11:51:05.156Z,18.50
2018-09-24T11:53:38.824Z,17.70
2018-09-24T11:56:12.356Z,15.80
2018-09-24T11:58:45.749Z,15.80
2018-09-24T12:01:19.270Z,15.80
2018-09-24T12:03:52.821Z,15.40
2018-09-24T12:06:26.267Z,15.50
2018-09-24T12:08:59.882Z,15.20
2018-09-24T12:11:33.484Z,15.00
2018-09-24T12:14:06.921Z,14.50
2018-09-24T12:16:40.569Z,14.10
2018-09-24T12:19:14.469Z,13.70
2018-09-24T12:21:48.104Z,13.50
2018-09-24T12:24:28.645Z,13.10
2018-09-24T12:27:02.163Z,11.60
2018-09-24T12:29:35.689Z,10.80
2018-09-24T12:32:09.269Z,10.30
2018-09-24T12:34:42.850Z,10.10
2018-09-24T12:37:16.326Z,10.10
2018-09-24T12:39:49.771Z,9.90
2018-09-24T12:42:23.153Z,9.90
2018-09-24T12:44:56.561Z,10.10
2018-09-24T12:47:30.145Z,10.30
2018-09-24T12:50:03.785Z,10.40
2018-09-24T12:52:37.165Z,11.10
2018-09-24T12:55:10.609Z,12.80
2018-09-24T12:57:44.972Z,15.10
2018-09-24T13:00:18.521Z,17.50
2018-09-24T13:02:51.949Z,18.20
2018-09-24T13:05:25.436Z,18.20
2018-09-24T13:07:58.868Z,17.20
2018-09-24T13:10:32.353Z,17.30
2018-09-24T13:13:05.877Z,17.30
2018-09-24T13:15:39.247Z,17.50
2018-09-24T13:18:12.607Z,16.30
2018-09-24T13:20:46.035Z,15.40
2018-09-24T13:23:19.590Z,14.40
2018-09-24T13:25:53.043Z,13.90
2018-09-24T13:28:26.506Z,13.30
2018-09-24T13:30:59.900Z,12.90
2018-09-24T13:33:33.247Z,12.50
2018-09-24T13:36:06.584Z,12.30
2018-09-24T13:38:39.970Z,12.00
2018-09-24T13:41:13.419Z,11.80
2018-09-24T13:43:46.774Z,11.60
2018-09-24T13:46:20.363Z,11.50
2018-09-24T13:48:53.870Z,11.20
2018-09-24T13:51:27.406Z,11.30
2018-09-24T13:54:00.817Z,11.30
2018-09-24T13:56:34.258Z,11.50
2018-09-24T13:59:07.620Z,11.60
2018-09-24T14:01:41.120Z,11.50
2018-09-24T14:04:14.774Z,11.30
2018-09-24T14:06:48.183Z,11.30
2018-09-24T14:09:41.815Z,11.00
2018-09-24T14:12:22.886Z,10.80
2018-09-24T14:14:56.382Z,10.80
2018-09-24T14:17:29.823Z,10.70
2018-09-24T14:20:03.284Z,10.60
2018-09-24T14:22:36.711Z,12.50
2018-09-24T14:25:10.389Z,14.90
2018-09-24T14:27:43.753Z,16.40
2018-09-24T14:30:17.177Z,17.50
2018-09-24T14:32:50.538Z,17.50
2018-09-24T14:35:23.956Z,17.20
2018-09-24T14:37:57.412Z,15.40
2018-09-24T14:40:30.829Z,14.50
2018-09-24T14:43:04.211Z,15.00
2018-09-24T14:45:37.788Z,16.50
2018-09-24T14:48:11.580Z,17.70
2018-09-24T14:50:45.113Z,16.70
2018-09-24T14:53:18.682Z,15.80
2018-09-24T14:55:52.208Z,15.00
2018-09-24T14:58:25.522Z,14.20
2018-09-24T15:00:58.831Z,13.10
2018-09-24T15:03:32.248Z,12.50
2018-09-24T15:06:05.791Z,12.10
2018-09-24T15:08:39.359Z,11.80
2018-09-24T15:11:12.735Z,11.70
2018-09-24T15:13:47.058Z,11.50
2018-09-24T15:16:20.568Z,12.50
2018-09-24T15:18:54.056Z,14.70
2018-09-24T15:21:27.552Z,15.70
2018-09-24T15:24:01.088Z,16.50
2018-09-24T15:26:34.689Z,17.20
2018-09-24T15:29:08.053Z,17.70
2018-09-24T15:31:41.404Z,18.30
2018-09-24T15:34:14.972Z,18.00
2018-09-24T15:36:48.336Z,17.70
2018-09-24T15:39:21.890Z,18.80
2018-09-24T15:41:55.388Z,18.90
2018-09-24T15:44:28.866Z,18.20
2018-09-24T15:47:02.243Z,17.70
2018-09-24T15:49:35.632Z,17.20
2018-09-24T15:52:09.153Z,17.40
2018-09-24T15:54:42.604Z,18.10
2018-09-24T15:57:15.960Z,18.00
2018-09-24T15:59:49.537Z,16.90
2018-09-24T16:02:22.898Z,15.80
2018-09-24T16:04:56.434Z,16.30
2018-09-24T16:07:29.833Z,16.20
2018-09-24T16:10:03.191Z,16.40
2018-09-24T16:12:36.553Z,15.70
2018-09-24T16:15:10.853Z,14.50
2018-09-24T16:17:44.388Z,13.50
2018-09-24T16:20:18.241Z,12.80
2018-09-24T16:22:51.813Z,12.50
2018-09-24T16:25:25.323Z,12.10
2018-09-24T16:27:58.912Z,12.00
2018-09-24T16:30:32.257Z,11.90
2018-09-24T16:33:05.660Z,11.80
2018-09-24T16:35:39.213Z,11.70
2018-09-24T16:38:12.778Z,11.50
2018-09-24T16:40:46.292Z,11.30
2018-09-24T16:43:19.885Z,11.10
2018-09-24T16:45:53.273Z,11.10
2018-09-24T16:48:26.813Z,11.00
2018-09-24T16:51:00.315Z,11.00
2018-09-24T16:53:33.797Z,11.00
2018-09-24T16:56:07.257Z,10.90
2018-09-24T16:58:40.677Z,10.80
2018-09-24T17:01:14.067Z,10.70
2018-09-24T17:03:47.601Z,10.80
2018-09-24T17:06:21.072Z,10.70
2018-09-24T17:08:54.590Z,10.70
2018-09-24T17:11:27.998Z,10.70
2018-09-24T17:14:01.454Z,10.70
2018-09-24T17:16:35.067Z,10.80
2018-09-24T17:19:08.573Z,10.70
2018-09-24T17:21:41.957Z,10.50
2018-09-24T17:24:15.439Z,10.50
2018-09-24T17:26:48.929Z,10.50
2018-09-24T17:29:22.502Z,10.50
2018-09-24T17:31:56.004Z,10.50
2018-09-24T17:34:29.456Z,10.50
2018-09-24T17:37:03.045Z,10.50
2018-09-24T17:39:36.312Z,10.50
2018-09-24T17:42:09.782Z,10.40
2018-09-24T17:44:43.325Z,10.30
2018-09-24T17:47:16.729Z,10.30
2018-09-24T17:49:50.125Z,10.20
2018-09-24T17:52:23.556Z,10.20
2018-09-24T17:54:56.968Z,10.20
2018-09-24T17:57:30.509Z,10.10
2018-09-24T18:00:04.178Z,10.10
2018-09-24T18:02:37.661Z,10.00
2018-09-24T18:05:11.243Z,10.00
2018-09-24T18:07:44.684Z,10.00
2018-09-24T18:10:18.243Z,10.00
2018-09-24T18:12:51.632Z,9.90
2018-09-24T18:15:25.333Z,9.90
2018-09-24T18:17:58.846Z,9.80
2018-09-24T18:20:32.412Z,9.80
2018-09-24T18:23:05.802Z,9.80
2018-09-24T18:25:39.219Z,9.80
2018-09-24T18:28:12.836Z,9.70
2018-09-24T18:30:46.317Z,9.70
2018-09-24T18:33:20.033Z,9.70
2018-09-24T18:35:53.423Z,9.70
2018-09-24T18:38:26.922Z,9.60
2018-09-24T18:41:00.874Z,9.60
2018-09-24T18:43:34.183Z,9.60
2018-09-24T18:46:07.562Z,9.60
2018-09-24T18:48:41.020Z,9.70
2018-09-24T18:51:14.469Z,9.70
2018-09-24T18:53:48.001Z,9.70
2018-09-24T18:56:21.253Z,9.70
2018-09-24T18:58:54.889Z,9.60
2018-09-24T19:01:35.054Z,9.60
2018-09-24T19:04:08.613Z,9.50
2018-09-24T19:06:42.121Z,9.50
2018-09-24T19:09:15.489Z,9.40
2018-09-24T19:11:49.060Z,9.40
2018-09-24T19:14:22.535Z,9.40
2018-09-24T19:16:55.861Z,9.40
2018-09-24T19:19:29.367Z,9.30
2018-09-24T19:22:02.970Z,9.30
2018-09-24T19:24:36.565Z,9.30
2018-09-24T19:27:10.097Z,9.20
2018-09-24T19:29:43.457Z,9.20
2018-09-24T19:32:17.020Z,9.20
2018-09-24T19:34:50.932Z,9.10
2018-09-24T19:37:24.484Z,9.10
2018-09-24T19:39:57.918Z,9.20
2018-09-24T19:42:31.216Z,9.10
2018-09-24T19:45:04.598Z,9.20
2018-09-24T19:47:38.009Z,9.10
2018-09-24T19:50:11.660Z,9.10
2018-09-24T19:52:45.214Z,9.00
2018-09-24T19:55:18.626Z,9.00
2018-09-24T19:57:51.956Z,9.00
2018-09-24T20:00:25.496Z,9.00
2018-09-24T20:02:59.013Z,9.00
2018-09-24T20:05:32.509Z,9.00
2018-09-24T20:08:06.074Z,8.90
2018-09-24T20:10:39.570Z,8.90
2018-09-24T20:13:13.113Z,8.90
2018-09-24T20:15:46.568Z,8.80
2018-09-24T20:18:20.237Z,9.40
2018-09-24T20:20:53.808Z,10.30
2018-09-24T20:23:27.415Z,9.80
2018-09-24T20:26:00.902Z,10.60
2018-09-24T20:28:34.618Z,11.30
2018-09-24T20:31:08.157Z,10.90
2018-09-24T20:33:41.789Z,11.00
2018-09-24T20:36:15.155Z,10.60
2018-09-24T20:38:48.724Z,9.90
2018-09-24T20:41:22.282Z,9.40
2018-09-24T20:43:55.747Z,9.20
2018-09-24T20:46:29.295Z,9.00
2018-09-24T20:49:02.877Z,8.90
2018-09-24T20:51:36.396Z,8.80
2018-09-24T20:54:09.957Z,8.70
2018-09-24T20:56:43.460Z,8.70
2018-09-24T20:59:16.930Z,8.60
2018-09-24T21:01:50.489Z,8.50
2018-09-24T21:04:23.969Z,8.40
2018-09-24T21:06:57.673Z,8.40
2018-09-24T21:09:31.172Z,8.40
2018-09-24T21:12:04.727Z,9.30
2018-09-24T21:14:38.288Z,10.30
2018-09-24T21:17:11.659Z,10.70
2018-09-24T21:19:45.267Z,10.70
2018-09-24T21:22:18.681Z,11.20
2018-09-24T21:24:52.561Z,11.10
2018-09-24T21:27:26.184Z,11.20
2018-09-24T21:29:59.754Z,11.00
2018-09-24T21:32:33.333Z,11.00
2018-09-24T21:35:06.908Z,11.10
2018-09-24T21:37:40.446Z,11.10
2018-09-24T21:40:13.857Z,11.20
2018-09-24T21:42:47.376Z,11.00
2018-09-24T21:45:20.900Z,11.00
2018-09-24T21:47:54.304Z,10.90
2018-09-24T21:50:27.751Z,10.90
2018-09-24T21:53:01.320Z,11.00
2018-09-24T21:55:34.745Z,11.10
2018-09-24T21:58:08.599Z,11.10
2018-09-24T22:00:42.093Z,11.00
2018-09-24T22:03:15.570Z,11.00
2018-09-24T22:05:49.009Z,10.90
2018-09-24T22:08:23.492Z,11.00
2018-09-24T22:10:57.049Z,11.00
2018-09-24T22:13:30.591Z,11.00
2018-09-24T22:16:04.109Z,11.00
2018-09-24T22:18:37.545Z,10.90
2018-09-24T22:21:11.299Z,10.80
2018-09-24T22:23:44.904Z,10.90
2018-09-24T22:26:18.344Z,10.80
2018-09-24T22:28:51.903Z,10.80
2018-09-24T22:31:25.321Z,10.80
2018-09-24T22:33:58.535Z,10.70
2018-09-24T22:36:31.954Z,10.60
2018-09-24T22:39:05.616Z,10.80
2018-09-24T22:41:39.153Z,10.80
2018-09-24T22:44:12.722Z,10.70
2018-09-24T22:46:46.247Z,10.80
2018-09-24T22:49:19.731Z,10.90
2018-09-24T22:51:54.152Z,10.80
2018-09-24T22:54:27.648Z,10.50
2018-09-24T22:57:06.234Z,10.60
2018-09-24T22:59:39.894Z,10.70
2018-09-24T23:02:13.427Z,10.60
2018-09-24T23:04:46.976Z,10.50
2018-09-24T23:07:20.453Z,10.50
2018-09-24T23:09:54.472Z,10.60
2018-09-24T23:12:28.057Z,10.50
2018-09-24T23:15:01.583Z,10.80
2018-09-24T23:17:35.180Z,10.90
2018-09-24T23:20:08.747Z,10.60
2018-09-24T23:22:42.297Z,10.60
2018-09-24T23:25:15.796Z,10.70
2018-09-24T23:27:49.264Z,10.80
2018-09-24T23:30:22.780Z,10.40
2018-09-24T23:32:56.282Z,9.90
2018-09-24T23:36:00.943Z,9.30
2018-09-24T23:38:34.390Z,8.90
2018-09-24T23:41:07.935Z,8.50
2018-09-24T23:43:41.485Z,8.30
2018-09-24T23:46:14.984Z,8.20
2018-09-24T23:48:48.389Z,8.10
2018-09-24T23:51:21.940Z,8.00
2018-09-24T23:53:55.444Z,8.00
2018-09-24T23:56:28.762Z,7.90
2018-09-24T23:59:02.276Z,7.80
